Time;durP1;ratioP1;P1;durP2;ratioP2;P2;SDS_P1;SDS_P2;PMS_P1;PMS_P2;Temp;Humidity;BMP_temperature;BMP_pressure;BME280_temperature;BME280_humidity;BME280_pressure;Samples;Min_cycle;Max_cycle;Signal;HPM_P1;HPM_P2
2020/12/17 00:01:18;;;;;;;23.15;15.60;;;8.10;99.90;;;;;;5035141;28;20037;-61
2020/12/17 00:03:44;;;;;;;25.13;16.58;;;8.20;99.90;;;;;;5053103;28;20057;-60
2020/12/17 00:06:12;;;;;;;21.13;14.63;;;8.10;99.90;;;;;;5054299;28;20486;-62
2020/12/17 00:08:38;;;;;;;26.17;16.33;;;8.20;99.90;;;;;;5039931;28;20033;-62
2020/12/17 00:11:04;;;;;;;27.50;16.30;;;8.30;99.90;;;;;;5056413;28;20040;-58
2020/12/17 00:13:30;;;;;;;21.55;15.02;;;8.30;99.90;;;;;;5056871;28;20055;-59
2020/12/17 00:15:55;;;;;;;25.40;14.45;;;8.30;99.90;;;;;;5056410;28;20079;-59
2020/12/17 00:18:21;;;;;;;26.30;17.83;;;8.30;99.90;;;;;;5039112;28;20031;-59
2020/12/17 00:20:46;;;;;;;31.88;17.83;;;8.30;99.90;;;;;;5056955;28;20048;-60
2020/12/17 00:23:12;;;;;;;32.60;18.25;;;8.30;99.90;;;;;;5057858;28;20397;-60
2020/12/17 00:25:40;;;;;;;33.63;17.90;;;8.30;99.90;;;;;;5039736;28;20032;-61
2020/12/17 00:28:05;;;;;;;32.05;17.98;;;8.20;99.90;;;;;;5056934;28;20029;-62
2020/12/17 00:30:31;;;;;;;37.65;19.45;;;8.20;99.90;;;;;;5057173;28;20120;-61
2020/12/17 00:32:56;;;;;;;39.65;19.40;;;8.30;99.90;;;;;;5056270;28;20029;-60
2020/12/17 00:35:22;;;;;;;33.25;19.00;;;8.20;99.90;;;;;;5038210;28;20029;-59
2020/12/17 00:37:48;;;;;;;44.40;20.27;;;8.30;99.90;;;;;;5055528;28;20029;-59
2020/12/17 00:40:15;;;;;;;45.53;20.92;;;8.30;99.90;;;;;;5056185;28;20044;-58
2020/12/17 00:42:43;;;;;;;50.25;20.77;;;8.30;99.90;;;;;;5038787;28;20056;-59
2020/12/17 00:45:08;;;;;;;47.63;23.13;;;8.20;99.90;;;;;;5056684;28;20107;-62
2020/12/17 00:47:34;;;;;;;41.45;20.33;;;8.10;99.90;;;;;;5056131;28;20109;-62
2020/12/17 00:50:00;;;;;;;38.33;20.13;;;8.20;99.90;;;;;;5056022;28;20029;-59
2020/12/17 00:52:26;;;;;;;60.00;21.10;;;8.20;99.90;;;;;;5056223;28;20032;-59
2020/12/17 00:54:52;;;;;;;69.88;22.25;;;8.10;99.90;;;;;;5037445;28;20031;-61
2020/12/17 00:57:24;;;;;;;42.35;21.00;;;8.10;99.90;;;;;;5056853;28;20032;-63
2020/12/17 00:59:50;;;;;;;37.75;20.13;;;8.20;99.90;;;;;;5056524;28;20029;-63
2020/12/17 01:02:15;;;;;;;37.05;19.58;;;8.20;99.90;;;;;;5056118;28;20036;-59
2020/12/17 01:04:41;;;;;;;38.95;19.92;;;8.20;99.90;;;;;;5056484;28;20040;-58
2020/12/17 01:07:07;;;;;;;34.17;19.55;;;8.20;99.90;;;;;;5037876;28;20032;-60
2020/12/17 01:09:33;;;;;;;39.47;19.30;;;8.10;99.90;;;;;;5056096;28;20489;-59
2020/12/17 01:11:58;;;;;;;34.20;18.10;;;8.00;99.90;;;;;;5055395;28;20474;-59
2020/12/17 01:14:24;;;;;;;34.50;19.50;;;8.00;99.90;;;;;;5055370;28;20467;-59
2020/12/17 01:16:50;;;;;;;35.92;19.50;;;8.00;99.90;;;;;;5037654;28;20573;-59
2020/12/17 01:19:15;;;;;;;31.83;18.08;;;8.00;99.90;;;;;;5054685;28;20535;-64
2020/12/17 01:21:42;;;;;;;36.53;20.05;;;8.00;99.90;;;;;;5056246;28;20497;-60
2020/12/17 01:24:07;;;;;;;35.00;17.08;;;8.10;99.90;;;;;;5055259;28;20029;-59
2020/12/17 01:26:33;;;;;;;27.40;15.38;;;8.10;99.90;;;;;;5037472;28;20454;-58
2020/12/17 01:28:59;;;;;;;26.95;15.45;;;8.00;99.90;;;;;;5036777;28;20536;-59
2020/12/17 01:31:24;;;;;;;22.50;15.55;;;8.00;99.90;;;;;;5037169;28;20028;-59
2020/12/17 01:33:50;;;;;;;21.15;14.30;;;8.00;99.90;;;;;;5054590;28;20516;-64
2020/12/17 01:36:16;;;;;;;24.05;14.93;;;7.90;99.90;;;;;;5055244;28;20457;-59
2020/12/17 01:38:41;;;;;;;22.25;15.38;;;8.00;99.90;;;;;;5054742;28;20086;-59
2020/12/17 01:41:13;;;;;;;22.63;14.27;;;8.00;99.90;;;;;;5054807;28;20382;-59
2020/12/17 01:43:43;;;;;;;21.45;13.88;;;7.90;99.90;;;;;;5055082;28;20021;-59
2020/12/17 01:46:11;;;;;;;24.85;15.35;;;8.00;99.90;;;;;;5054155;28;20086;-60
2020/12/17 01:48:36;;;;;;;24.70;14.63;;;8.00;99.90;;;;;;5036907;28;20029;-63
2020/12/17 01:51:03;;;;;;;21.38;13.35;;;7.90;99.90;;;;;;5036443;28;20036;-58
2020/12/17 01:53:38;;;;;;;20.52;14.00;;;7.80;99.90;;;;;;5054731;28;20044;-58
2020/12/17 01:56:09;;;;;;;22.73;15.25;;;7.70;99.90;;;;;;5054165;28;20025;-58
2020/12/17 01:58:40;;;;;;;21.52;14.05;;;7.60;99.90;;;;;;5055170;28;20109;-63
2020/12/17 02:01:10;;;;;;;20.13;13.77;;;7.60;99.90;;;;;;5054641;28;20033;-60
2020/12/17 02:03:36;;;;;;;20.58;14.02;;;7.80;99.90;;;;;;5056655;28;20049;-59
2020/12/17 02:06:01;;;;;;;19.85;13.65;;;7.60;99.90;;;;;;5037523;28;20031;-59
2020/12/17 02:08:38;;;;;;;20.63;13.30;;;7.70;99.90;;;;;;5055684;28;20033;-58
2020/12/17 02:11:09;;;;;;;20.20;13.93;;;7.60;99.90;;;;;;5055458;28;20052;-60
2020/12/17 02:13:35;;;;;;;20.75;13.55;;;7.50;99.90;;;;;;5056265;28;20025;-64
2020/12/17 02:16:03;;;;;;;20.55;14.57;;;7.60;99.90;;;;;;5055798;28;20029;-60
2020/12/17 02:18:28;;;;;;;21.48;13.95;;;7.40;99.90;;;;;;5037413;28;20048;-58
2020/12/17 02:20:54;;;;;;;23.25;13.95;;;7.50;99.90;;;;;;5053760;28;20435;-60
2020/12/17 02:23:22;;;;;;;22.10;15.32;;;7.60;99.90;;;;;;5054251;28;20071;-59
2020/12/17 02:25:49;;;;;;;25.15;13.75;;;7.50;99.90;;;;;;5036335;28;20027;-59
2020/12/17 02:28:15;;;;;;;20.30;12.68;;;7.50;99.90;;;;;;5035127;28;20115;-60
2020/12/17 02:30:41;;;;;;;18.48;13.00;;;7.60;99.90;;;;;;5053271;28;20386;-59
2020/12/17 02:33:08;;;;;;;19.67;13.07;;;7.50;99.90;;;;;;5035026;28;20474;-58
2020/12/17 02:35:33;;;;;;;22.50;13.63;;;7.60;99.90;;;;;;5053615;28;20098;-59
2020/12/17 02:38:03;;;;;;;22.80;14.25;;;7.50;99.90;;;;;;5053195;28;20119;-59
2020/12/17 02:40:28;;;;;;;20.48;12.73;;;7.40;99.90;;;;;;5053997;28;20068;-68
2020/12/17 02:42:54;;;;;;;19.13;13.55;;;7.50;99.90;;;;;;5035404;28;20178;-66
2020/12/17 02:45:20;;;;;;;24.45;14.48;;;7.40;99.90;;;;;;5035995;28;20029;-60
2020/12/17 02:47:45;;;;;;;21.67;13.02;;;7.40;99.90;;;;;;5053312;28;20032;-60
2020/12/17 02:50:13;;;;;;;21.05;13.93;;;7.40;99.90;;;;;;5035241;28;20068;-58
2020/12/17 02:52:40;;;;;;;20.77;13.98;;;7.40;99.90;;;;;;5053230;28;20032;-58
2020/12/17 02:55:06;;;;;;;22.00;15.02;;;7.30;99.90;;;;;;5052947;28;20104;-59
2020/12/17 02:57:31;;;;;;;20.70;12.88;;;7.30;99.90;;;;;;5053858;28;20063;-59
2020/12/17 02:59:57;;;;;;;19.65;13.77;;;7.30;99.90;;;;;;5034918;28;20132;-59
2020/12/17 03:02:22;;;;;;;16.98;12.30;;;7.30;99.90;;;;;;5035306;28;20561;-59
2020/12/17 03:04:48;;;;;;;18.90;12.60;;;7.40;99.90;;;;;;5053295;28;20029;-58
2020/12/17 03:07:13;;;;;;;20.73;12.93;;;7.40;99.90;;;;;;5034924;28;20423;-59
2020/12/17 03:09:39;;;;;;;18.42;12.60;;;7.30;99.90;;;;;;5035492;28;20478;-58
2020/12/17 03:12:05;;;;;;;22.88;13.88;;;7.30;99.90;;;;;;5052522;28;20029;-58
2020/12/17 03:14:30;;;;;;;17.73;12.52;;;7.30;99.90;;;;;;5035234;28;20146;-58
2020/12/17 03:16:56;;;;;;;23.48;14.50;;;7.20;99.90;;;;;;5052783;28;20025;-63
2020/12/17 03:19:22;;;;;;;17.73;12.13;;;7.30;99.90;;;;;;5053662;28;20056;-59
2020/12/17 03:21:51;;;;;;;18.10;12.63;;;7.30;99.90;;;;;;5036184;28;20029;-59
2020/12/17 03:24:16;;;;;;;18.27;13.15;;;7.30;99.90;;;;;;5035160;28;20350;-59
2020/12/17 03:26:42;;;;;;;19.20;12.85;;;7.20;99.90;;;;;;5053881;28;20324;-59
2020/12/17 03:29:08;;;;;;;19.20;13.10;;;7.30;99.90;;;;;;5034867;28;20406;-63
2020/12/17 03:31:33;;;;;;;20.98;13.30;;;7.30;99.90;;;;;;5053343;28;20386;-58
2020/12/17 03:33:59;;;;;;;19.98;13.65;;;7.30;99.90;;;;;;5053127;28;20037;-59
2020/12/17 03:36:24;;;;;;;19.40;11.73;;;7.10;99.90;;;;;;5019404;28;20111;-58
2020/12/17 03:38:50;;;;;;;21.02;13.25;;;7.00;99.90;;;;;;5035836;28;20496;-59
2020/12/17 03:41:16;;;;;;;18.83;12.43;;;7.00;99.90;;;;;;5052747;28;20029;-60
2020/12/17 03:43:42;;;;;;;20.67;13.55;;;7.10;99.90;;;;;;5053642;28;20064;-59
2020/12/17 03:46:07;;;;;;;20.30;12.80;;;7.10;99.90;;;;;;5052836;28;20532;-59
2020/12/17 03:48:33;;;;;;;23.88;14.82;;;6.90;99.90;;;;;;5035437;28;20040;-58
2020/12/17 03:50:59;;;;;;;20.75;13.90;;;6.80;99.90;;;;;;5053330;28;20028;-63
2020/12/17 03:53:24;;;;;;;18.95;12.85;;;6.70;99.90;;;;;;5053977;28;20078;-59
2020/12/17 03:55:50;;;;;;;21.80;12.85;;;6.70;99.90;;;;;;5035552;28;20493;-60
2020/12/17 03:58:15;;;;;;;21.15;12.32;;;6.90;99.90;;;;;;5052738;28;20025;-58
2020/12/17 04:00:41;;;;;;;20.23;12.68;;;6.90;99.90;;;;;;5035538;28;20492;-61
2020/12/17 04:03:07;;;;;;;20.98;13.18;;;6.70;99.90;;;;;;5053114;28;20075;-62
2020/12/17 04:05:33;;;;;;;22.27;14.18;;;6.70;99.90;;;;;;5035909;28;20035;-60
2020/12/17 04:07:59;;;;;;;21.80;13.07;;;6.60;99.90;;;;;;5054939;28;20028;-66
2020/12/17 04:10:25;;;;;;;20.10;13.32;;;6.50;99.90;;;;;;5036152;28;20033;-65
2020/12/17 04:12:51;;;;;;;21.58;14.73;;;6.60;99.90;;;;;;5054156;28;20036;-59
2020/12/17 04:15:16;;;;;;;23.45;13.40;;;6.50;99.90;;;;;;5053460;28;20106;-58
2020/12/17 04:17:42;;;;;;;19.15;13.02;;;6.50;99.90;;;;;;5036769;28;20029;-59
2020/12/17 04:20:08;;;;;;;23.08;13.88;;;6.50;99.90;;;;;;5035745;28;20028;-58
2020/12/17 04:22:34;;;;;;;19.98;13.18;;;6.50;99.90;;;;;;5036150;28;20033;-62
2020/12/17 04:25:00;;;;;;;18.98;12.25;;;6.50;99.90;;;;;;5036353;28;20029;-60
2020/12/17 04:27:25;;;;;;;23.17;12.52;;;6.40;99.90;;;;;;5036515;28;20113;-59
2020/12/17 04:29:51;;;;;;;24.05;13.82;;;6.40;99.90;;;;;;5053460;28;20132;-58
2020/12/17 04:32:17;;;;;;;21.92;13.18;;;6.40;99.90;;;;;;5052510;28;20025;-63
2020/12/17 04:34:42;;;;;;;19.40;13.05;;;6.40;99.90;;;;;;5053436;28;20033;-59
2020/12/17 04:37:08;;;;;;;20.77;13.18;;;6.30;99.90;;;;;;5053044;28;20029;-58
2020/12/17 04:39:33;;;;;;;18.25;12.40;;;6.40;99.90;;;;;;5036271;28;20033;-59
2020/12/17 04:42:01;;;;;;;17.13;11.15;;;6.30;99.90;;;;;;5054267;28;20108;-59
2020/12/17 04:44:27;;;;;;;19.98;12.50;;;6.30;99.90;;;;;;5054128;28;20355;-64
2020/12/17 04:46:58;;;;;;;18.35;12.73;;;6.30;99.90;;;;;;5054542;28;20021;-66
2020/12/17 04:49:26;;;;;;;22.25;12.90;;;6.20;99.90;;;;;;5053942;28;20043;-65
2020/12/17 04:51:56;;;;;;;20.02;12.25;;;6.20;99.90;;;;;;5054531;28;20033;-59
2020/12/17 04:54:23;;;;;;;18.63;11.95;;;6.20;99.90;;;;;;5057509;28;20297;-63
2020/12/17 04:57:07;;;;;;;21.38;13.20;;;6.20;99.90;;;;;;5056514;28;20032;-58
2020/12/17 04:59:48;;;;;;;19.15;13.52;;;6.20;99.90;;;;;;5056203;28;20037;-58
2020/12/17 05:02:16;;;;;;;20.70;12.13;;;6.10;99.90;;;;;;5055007;28;20033;-60
2020/12/17 05:04:44;;;;;;;18.85;12.52;;;6.20;99.90;;;;;;5056247;28;20061;-57
2020/12/17 05:07:12;;;;;;;19.00;11.02;;;6.20;99.90;;;;;;5037586;28;20021;-63
2020/12/17 05:09:41;;;;;;;21.42;12.07;;;6.20;99.90;;;;;;5055833;28;20052;-61
2020/12/17 05:12:08;;;;;;;20.52;12.80;;;6.10;99.90;;;;;;5055980;28;20029;-59
2020/12/17 05:14:34;;;;;;;17.70;11.98;;;6.20;99.90;;;;;;5037857;28;20036;-61
2020/12/17 05:17:00;;;;;;;23.13;12.88;;;6.10;99.90;;;;;;5056383;28;20029;-61
2020/12/17 05:19:27;;;;;;;18.75;12.35;;;6.10;99.90;;;;;;5038240;28;20055;-59
2020/12/17 05:21:54;;;;;;;21.50;12.30;;;6.10;99.90;;;;;;5038722;28;20029;-60
2020/12/17 05:24:26;;;;;;;19.48;13.68;;;6.10;99.90;;;;;;5055413;28;20056;-58
2020/12/17 05:26:53;;;;;;;23.30;14.07;;;6.10;99.90;;;;;;5055215;28;20040;-58
2020/12/17 05:29:20;;;;;;;17.95;11.50;;;6.10;99.90;;;;;;5054613;28;20029;-58
2020/12/17 05:31:46;;;;;;;20.73;12.35;;;6.30;99.90;;;;;;5055573;28;20555;-60
2020/12/17 05:34:13;;;;;;;16.63;12.13;;;6.10;99.90;;;;;;5055292;28;20029;-59
2020/12/17 05:36:44;;;;;;;17.58;11.82;;;6.00;99.90;;;;;;5038211;28;20021;-57
2020/12/17 05:39:18;;;;;;;17.17;12.02;;;6.00;99.90;;;;;;5037130;28;20039;-59
2020/12/17 05:41:47;;;;;;;15.82;11.02;;;6.10;99.90;;;;;;5021214;28;20039;-59
2020/12/17 05:44:20;;;;;;;19.67;12.60;;;6.20;99.90;;;;;;5036919;28;20108;-59
2020/12/17 05:46:47;;;;;;;19.70;12.07;;;6.20;99.90;;;;;;5037599;28;20116;-58
2020/12/17 05:49:27;;;;;;;18.75;12.85;;;6.20;99.90;;;;;;5054562;28;20032;-59
2020/12/17 05:52:14;;;;;;;18.13;12.55;;;6.10;99.90;;;;;;5036969;28;20458;-58
2020/12/17 05:54:42;;;;;;;16.88;12.15;;;6.20;99.90;;;;;;5037231;28;20064;-58
2020/12/17 05:57:13;;;;;;;16.60;11.32;;;6.30;99.90;;;;;;5037211;28;20024;-61
2020/12/17 05:59:40;;;;;;;15.93;11.43;;;6.20;99.90;;;;;;5037177;28;20600;-59
2020/12/17 06:02:38;;;;;;;21.85;12.80;;;6.10;99.90;;;;;;5036730;28;20037;-58
2020/12/17 06:05:03;;;;;;;17.45;11.45;;;6.00;99.90;;;;;;5010488;28;20486;-58
2020/12/17 06:07:33;;;;;;;20.15;11.95;;;6.00;99.90;;;;;;5036862;28;20029;-59
2020/12/17 06:10:05;;;;;;;21.33;13.15;;;6.00;99.90;;;;;;5055403;28;20037;-60
2020/12/17 06:12:34;;;;;;;20.42;12.05;;;6.00;99.90;;;;;;5054573;28;20043;-58
2020/12/17 06:15:02;;;;;;;17.83;11.40;;;5.80;99.90;;;;;;5054557;28;20040;-58
2020/12/17 06:17:31;;;;;;;16.05;11.75;;;5.90;99.90;;;;;;5054046;28;20028;-61
2020/12/17 06:19:59;;;;;;;20.63;12.70;;;5.90;99.90;;;;;;5036783;28;20458;-59
2020/12/17 06:22:25;;;;;;;18.38;12.23;;;5.90;99.90;;;;;;5053686;28;20064;-62
2020/12/17 06:24:52;;;;;;;18.35;10.93;;;5.80;99.90;;;;;;5054475;28;20037;-59
2020/12/17 06:27:27;;;;;;;19.23;12.68;;;5.80;99.90;;;;;;5054414;28;20025;-58
2020/12/17 06:30:04;;;;;;;19.55;12.80;;;5.90;99.90;;;;;;5054787;28;20382;-58
2020/12/17 06:32:34;;;;;;;22.42;12.18;;;5.90;99.90;;;;;;5035639;28;20131;-59
2020/12/17 06:35:20;;;;;;;20.63;12.73;;;5.90;99.90;;;;;;5054104;28;20110;-59
2020/12/17 06:37:46;;;;;;;19.20;12.98;;;5.90;99.90;;;;;;5053816;28;20025;-59
2020/12/17 06:40:12;;;;;;;18.88;11.77;;;5.90;99.90;;;;;;5053430;28;20477;-58
2020/12/17 06:42:39;;;;;;;18.00;11.27;;;5.80;99.90;;;;;;5053768;28;20036;-59
2020/12/17 06:45:40;;;;;;;18.30;11.40;;;5.90;99.90;;;;;;5036250;28;20458;-61
2020/12/17 06:48:31;;;;;;;17.07;12.03;;;5.90;99.90;;;;;;5036401;28;20032;-59
2020/12/17 06:50:57;;;;;;;17.77;12.02;;;5.80;99.90;;;;;;5054187;28;20268;-62
2020/12/17 06:53:49;;;;;;;18.23;12.45;;;5.90;99.90;;;;;;5053256;28;20025;-59
2020/12/17 06:56:15;;;;;;;18.40;11.80;;;5.90;99.90;;;;;;5049073;28;20079;-58
2020/12/17 06:58:41;;;;;;;20.33;13.10;;;6.10;99.90;;;;;;5053764;28;20385;-59
2020/12/17 07:01:26;;;;;;;19.80;12.23;;;5.90;99.90;;;;;;5035294;28;20124;-58
2020/12/17 07:03:52;;;;;;;16.75;11.73;;;5.90;99.90;;;;;;5053293;28;20490;-58
2020/12/17 07:06:37;;;;;;;17.63;12.00;;;5.90;99.90;;;;;;5035265;28;20032;-59
2020/12/17 07:09:04;;;;;;;17.92;12.18;;;6.00;99.90;;;;;;5053916;28;20033;-59
2020/12/17 07:11:36;;;;;;;15.52;11.63;;;5.80;99.90;;;;;;5052816;28;20453;-58
2020/12/17 07:14:03;;;;;;;;;;;5.80;99.90;;;;;;5053559;28;20496;-60
2020/12/17 07:16:31;;;;;;;17.60;11.63;;;5.90;99.90;;;;;;5034248;28;19911;-59
2020/12/17 07:19:15;;;;;;;28.48;18.55;;;5.90;99.90;;;;;;5035173;28;20032;-60
2020/12/17 07:21:41;;;;;;;19.58;13.23;;;6.00;99.90;;;;;;5035445;28;20035;-61
2020/12/17 07:24:07;;;;;;;18.95;12.32;;;5.90;99.90;;;;;;5036120;28;20112;-59
2020/12/17 07:26:34;;;;;;;16.85;11.40;;;5.80;99.90;;;;;;5053952;28;20021;-59
2020/12/17 07:29:00;;;;;;;19.70;13.10;;;5.80;99.90;;;;;;5053900;28;20029;-59
2020/12/17 07:31:27;;;;;;;18.33;11.27;;;5.80;99.90;;;;;;5034190;28;20036;-58
2020/12/17 07:33:53;;;;;;;18.27;10.88;;;5.90;99.90;;;;;;5053443;28;20039;-60
2020/12/17 07:36:43;;;;;;;16.55;11.18;;;6.00;99.90;;;;;;5034742;28;20378;-58
2020/12/17 07:39:08;;;;;;;18.77;11.73;;;5.90;99.90;;;;;;5052682;28;20104;-59
2020/12/17 07:41:34;;;;;;;15.73;11.07;;;5.90;99.90;;;;;;5034814;28;20124;-59
2020/12/17 07:44:00;;;;;;;21.73;12.80;;;5.90;99.90;;;;;;5053129;28;20021;-59
2020/12/17 07:46:44;;;;;;;19.38;11.45;;;5.80;99.90;;;;;;5052352;28;20025;-59
2020/12/17 07:49:24;;;;;;;17.98;10.73;;;6.00;99.90;;;;;;5052682;28;20100;-59
2020/12/17 07:51:50;;;;;;;18.95;12.70;;;6.20;99.90;;;;;;5034919;28;20530;-58
2020/12/17 07:54:22;;;;;;;19.85;11.80;;;6.30;99.90;;;;;;5051867;28;20147;-59
2020/12/17 07:56:48;;;;;;;;;;;6.40;99.90;;;;;;5035792;28;20025;-58
2020/12/17 07:59:14;;;;;;;21.73;11.50;;;6.50;99.90;;;;;;5051604;28;20054;-60
2020/12/17 08:01:39;;;;;;;19.52;10.73;;;7.10;99.90;;;;;;5052230;28;20111;-59
2020/12/17 08:04:07;;;;;;;14.98;9.88;;;7.60;99.90;;;;;;5034499;28;20057;-59
2020/12/17 08:06:34;;;;;;;15.82;9.30;;;7.90;99.90;;;;;;5033924;28;20251;-61
2020/12/17 08:09:02;;;;;;;14.77;10.57;;;8.20;99.90;;;;;;5034417;28;20470;-59
2020/12/17 08:11:28;;;;;;;22.60;9.45;;;8.50;99.90;;;;;;5033503;28;20078;-60
2020/12/17 08:14:02;;;;;;;12.13;9.93;;;8.10;99.90;;;;;;5051572;28;20029;-60
2020/12/17 08:16:28;;;;;;;20.05;9.73;;;7.90;99.90;;;;;;5033790;28;20021;-59
2020/12/17 08:18:55;;;;;;;14.38;9.63;;;7.70;99.90;;;;;;5030274;28;20108;-61
2020/12/17 08:21:21;;;;;;;16.52;11.10;;;7.60;99.90;;;;;;5031932;28;20033;-59
2020/12/17 08:23:48;;;;;;;16.02;9.90;;;7.40;99.90;;;;;;5032177;28;20052;-59
2020/12/17 08:26:18;;;;;;;14.73;10.60;;;7.10;99.90;;;;;;5031828;28;20021;-59
2020/12/17 08:28:44;;;;;;;14.23;10.60;;;6.80;99.90;;;;;;5017662;28;20072;-59
2020/12/17 08:31:15;;;;;;;17.88;10.05;;;6.80;99.90;;;;;;5019030;28;20076;-59
2020/12/17 08:33:46;;;;;;;13.75;10.75;;;6.80;99.90;;;;;;5037071;28;20041;-61
2020/12/17 08:36:26;;;;;;;14.93;10.43;;;6.80;99.90;;;;;;5018904;28;20030;-60
2020/12/17 08:39:12;;;;;;;20.92;11.02;;;7.00;99.90;;;;;;5018468;28;20041;-59
2020/12/17 08:41:54;;;;;;;16.60;10.65;;;6.80;99.90;;;;;;5035056;28;20116;-59
2020/12/17 08:44:26;;;;;;;18.98;12.23;;;6.90;99.90;;;;;;5035185;28;20022;-66
2020/12/17 08:46:57;;;;;;;17.98;11.50;;;7.20;99.90;;;;;;5035640;28;20027;-60
2020/12/17 08:49:24;;;;;;;17.88;10.93;;;7.40;99.90;;;;;;5035362;28;20029;-60
2020/12/17 08:51:50;;;;;;;13.77;10.30;;;7.70;99.90;;;;;;5036915;28;20462;-59
2020/12/17 08:54:25;;;;;;;15.93;10.35;;;7.60;99.90;;;;;;5037234;28;20025;-64
2020/12/17 08:56:58;;;;;;;14.88;10.20;;;8.10;99.90;;;;;;5035595;28;20079;-60
2020/12/17 08:59:24;;;;;;;14.00;9.52;;;8.70;99.90;;;;;;5034786;28;20056;-60
2020/12/17 09:01:50;;;;;;;17.20;10.13;;;8.80;99.90;;;;;;5035242;28;20196;-60
2020/12/17 09:04:16;;;;;;;12.48;9.57;;;8.60;99.90;;;;;;5013987;28;20104;-58
2020/12/17 09:06:51;;;;;;;18.55;10.38;;;8.10;99.90;;;;;;5020751;28;20088;-62
2020/12/17 09:09:24;;;;;;;16.55;9.75;;;7.70;99.90;;;;;;5022819;28;20022;-65
2020/12/17 09:11:55;;;;;;;18.73;10.73;;;7.80;99.90;;;;;;5024235;28;20029;-59
2020/12/17 09:14:30;;;;;;;14.30;10.27;;;7.60;99.90;;;;;;5024035;28;20034;-68
2020/12/17 09:17:08;;;;;;;20.13;11.43;;;7.50;99.90;;;;;;5023263;28;20029;-59
2020/12/17 09:19:34;;;;;;;16.65;10.93;;;7.40;99.90;;;;;;5024686;28;20108;-60
2020/12/17 09:22:00;;;;;;;19.80;10.98;;;7.40;99.90;;;;;;5033329;28;20037;-60
2020/12/17 09:24:37;;;;;;;16.15;10.68;;;7.40;99.90;;;;;;5021075;28;20025;-63
2020/12/17 09:27:23;;;;;;;13.45;9.98;;;7.60;99.90;;;;;;5027070;28;20050;-60
2020/12/17 09:30:15;;;;;;;16.55;11.77;;;7.70;99.90;;;;;;5024540;28;20032;-60
2020/12/17 09:32:51;;;;;;;21.60;11.90;;;7.70;99.90;;;;;;5024482;28;20045;-62
2020/12/17 09:35:17;;;;;;;18.85;11.57;;;7.60;99.90;;;;;;5026401;28;20030;-59
2020/12/17 09:38:02;;;;;;;15.25;10.77;;;7.70;99.90;;;;;;5024168;28;20029;-59
2020/12/17 09:40:29;;;;;;;18.92;11.00;;;7.70;99.90;;;;;;5016516;28;20038;-60
2020/12/17 09:43:14;;;;;;;16.77;10.18;;;7.60;99.90;;;;;;5024781;28;20032;-60
2020/12/17 09:45:45;;;;;;;18.38;10.85;;;7.50;99.90;;;;;;5029101;28;20366;-64
2020/12/17 09:48:14;;;;;;;14.73;10.73;;;8.10;99.90;;;;;;5019679;28;20090;-66
2020/12/17 09:50:55;;;;;;;20.92;11.23;;;8.20;99.90;;;;;;5035483;28;20075;-60
2020/12/17 09:53:22;;;;;;;16.58;10.65;;;8.00;99.90;;;;;;5022761;28;20117;-67
2020/12/17 09:55:49;;;;;;;22.88;12.80;;;8.00;99.90;;;;;;5023289;28;20029;-60
2020/12/17 09:58:14;;;;;;;20.48;12.85;;;7.90;99.90;;;;;;5015602;28;20030;-58
2020/12/17 10:00:40;;;;;;;20.55;12.40;;;7.80;99.90;;;;;;5015575;28;20277;-61
2020/12/17 10:03:06;;;;;;;15.52;11.50;;;7.70;99.90;;;;;;5022336;28;20075;-64
2020/12/17 10:05:31;;;;;;;19.27;13.25;;;7.70;99.90;;;;;;5035810;28;20025;-62
2020/12/17 10:07:57;;;;;;;18.65;11.73;;;7.60;99.90;;;;;;5039327;28;20028;-69
2020/12/17 10:10:23;;;;;;;21.17;12.93;;;7.60;99.90;;;;;;5040145;28;20467;-63
2020/12/17 10:12:50;;;;;;;21.52;12.30;;;7.60;99.90;;;;;;5017036;28;20030;-59
2020/12/17 10:15:15;;;;;;;20.25;13.10;;;7.70;99.90;;;;;;5034759;28;20030;-61
2020/12/17 10:17:41;;;;;;;17.55;12.95;;;7.90;99.90;;;;;;5034646;28;20262;-61
2020/12/17 10:20:10;;;;;;;17.88;12.88;;;8.20;99.90;;;;;;5020323;28;20040;-60
2020/12/17 10:22:36;;;;;;;19.00;12.82;;;8.00;99.90;;;;;;5025546;28;20021;-61
2020/12/17 10:25:04;;;;;;;19.08;13.10;;;8.00;99.90;;;;;;5036168;28;20056;-60
2020/12/17 10:27:30;;;;;;;19.80;12.75;;;7.90;99.90;;;;;;5026819;28;20479;-61
2020/12/17 10:29:55;;;;;;;18.30;13.50;;;7.80;99.90;;;;;;5042991;28;20037;-60
2020/12/17 10:32:21;;;;;;;34.17;13.07;;;7.80;99.90;;;;;;5040818;28;20464;-65
2020/12/17 10:34:47;;;;;;;18.80;13.68;;;8.60;99.90;;;;;;5042010;28;20029;-60
2020/12/17 10:37:12;;;;;;;21.67;13.15;;;8.60;99.90;;;;;;5051281;28;20382;-64
2020/12/17 10:39:38;;;;;;;18.92;13.55;;;8.40;99.90;;;;;;5027585;28;20037;-63
2020/12/17 10:42:04;;;;;;;18.10;13.00;;;8.10;99.90;;;;;;5035035;28;20036;-60
2020/12/17 10:44:31;;;;;;;18.08;13.65;;;8.00;99.90;;;;;;5047763;28;20036;-60
2020/12/17 10:47:02;;;;;;;21.83;13.65;;;8.00;99.90;;;;;;5019057;28;20050;-60
2020/12/17 10:49:27;;;;;;;16.55;12.80;;;7.80;99.90;;;;;;5015193;28;20033;-59
2020/12/17 10:51:54;;;;;;;36.30;18.15;;;7.80;99.90;;;;;;5032964;28;20083;-64
2020/12/17 10:54:19;;;;;;;33.65;21.58;;;9.40;99.90;;;;;;5032544;28;20025;-63
2020/12/17 10:56:46;;;;;;;25.00;14.55;;;10.40;99.90;;;;;;5032454;28;20052;-60
2020/12/17 10:59:12;;;;;;;19.30;13.65;;;10.50;99.90;;;;;;5015113;28;20542;-60
2020/12/17 11:01:38;;;;;;;20.67;14.02;;;9.40;99.90;;;;;;5015277;28;20399;-60
2020/12/17 11:04:03;;;;;;;18.75;14.05;;;8.70;99.90;;;;;;5011448;28;20057;-59
2020/12/17 11:06:29;;;;;;;19.17;13.32;;;8.30;99.90;;;;;;5011473;28;20032;-58
2020/12/17 11:08:54;;;;;;;21.17;13.40;;;8.30;99.90;;;;;;5013094;28;20037;-61
2020/12/17 11:11:20;;;;;;;18.52;12.35;;;8.10;99.90;;;;;;5011600;28;20117;-64
2020/12/17 11:13:46;;;;;;;20.00;13.07;;;8.10;99.90;;;;;;5012756;28;20026;-61
2020/12/17 11:16:12;;;;;;;21.23;13.82;;;8.10;99.90;;;;;;5013732;28;20025;-58
2020/12/17 11:18:39;;;;;;;17.52;12.82;;;8.00;99.90;;;;;;5012611;28;20025;-59
2020/12/17 11:21:06;;;;;;;19.38;13.30;;;8.00;99.90;;;;;;5012755;28;20058;-59
2020/12/17 11:23:33;;;;;;;21.42;14.68;;;8.00;99.90;;;;;;5013182;28;20032;-59
2020/12/17 11:26:01;;;;;;;21.48;14.45;;;8.00;99.90;;;;;;5032412;28;20033;-59
2020/12/17 11:28:26;;;;;;;19.83;14.02;;;8.00;99.90;;;;;;5033320;28;20537;-61
2020/12/17 11:30:52;;;;;;;23.60;15.00;;;8.10;99.90;;;;;;5032794;28;20034;-60
2020/12/17 11:33:18;;;;;;;18.35;14.15;;;8.10;99.90;;;;;;5033027;28;20030;-60
2020/12/17 11:35:43;;;;;;;21.13;12.77;;;8.20;99.90;;;;;;5031145;28;20057;-58
2020/12/17 11:38:09;;;;;;;21.48;14.13;;;8.40;99.90;;;;;;5031318;28;20033;-65
2020/12/17 11:40:35;;;;;;;22.08;14.07;;;8.30;99.90;;;;;;5030863;28;20083;-59
2020/12/17 11:43:01;;;;;;;21.70;15.15;;;8.30;99.90;;;;;;5031872;28;20037;-60
2020/12/17 11:45:26;;;;;;;16.80;13.32;;;8.20;99.90;;;;;;5033012;28;20025;-65
2020/12/17 11:47:53;;;;;;;19.33;15.38;;;8.20;99.90;;;;;;5032236;28;20509;-59
2020/12/17 11:50:18;;;;;;;22.13;14.60;;;8.20;99.90;;;;;;5033613;28;20036;-59
2020/12/17 11:52:44;;;;;;;16.40;13.43;;;8.00;99.90;;;;;;5032677;28;20240;-59
2020/12/17 11:55:10;;;;;;;18.95;15.70;;;8.00;99.90;;;;;;5032647;28;20026;-59
2020/12/17 11:57:36;;;;;;;21.13;14.73;;;8.00;99.90;;;;;;5031989;28;20033;-61
2020/12/17 12:00:07;;;;;;;21.75;15.00;;;7.90;99.90;;;;;;5031082;28;20466;-61
2020/12/17 12:02:34;;;;;;;21.58;14.52;;;7.80;99.90;;;;;;5033520;28;20493;-63
2020/12/17 12:05:00;;;;;;;25.90;15.90;;;7.90;99.90;;;;;;5053026;28;20378;-60
2020/12/17 12:07:26;;;;;;;24.33;15.95;;;7.80;99.90;;;;;;5035629;28;20029;-68
2020/12/17 12:09:53;;;;;;;26.67;19.48;;;8.00;99.90;;;;;;5052381;28;20033;-61
2020/12/17 12:12:19;;;;;;;32.80;19.50;;;8.10;99.90;;;;;;5054010;28;20029;-64
2020/12/17 12:14:45;;;;;;;27.27;15.65;;;9.20;99.90;;;;;;5052794;28;20025;-65
2020/12/17 12:17:10;;;;;;;21.25;14.98;;;10.40;99.90;;;;;;5034975;28;20033;-64
2020/12/17 12:19:36;;;;;;;19.65;15.15;;;10.70;99.90;;;;;;5051493;28;20382;-63
2020/12/17 12:22:02;;;;;;;22.70;15.38;;;11.20;99.90;;;;;;5052041;28;20029;-61
2020/12/17 12:24:27;;;;;;;21.88;16.65;;;10.20;99.90;;;;;;5051682;28;20025;-61
2020/12/17 12:26:53;;;;;;;22.17;14.27;;;9.30;99.90;;;;;;5051689;28;20025;-59
2020/12/17 12:29:19;;;;;;;20.90;15.63;;;9.00;99.90;;;;;;5052073;28;20405;-61
2020/12/17 12:31:48;;;;;;;26.70;16.42;;;8.60;99.90;;;;;;5051438;28;20467;-63
2020/12/17 12:34:14;;;;;;;24.27;16.10;;;8.60;99.90;;;;;;5034767;28;20086;-60
2020/12/17 12:36:40;;;;;;;21.08;14.88;;;8.50;99.90;;;;;;5033594;28;20106;-59
2020/12/17 12:39:05;;;;;;;18.85;13.98;;;8.20;99.90;;;;;;5051834;28;20029;-58
2020/12/17 12:41:31;;;;;;;22.10;14.63;;;8.60;99.90;;;;;;5050995;28;20037;-61
2020/12/17 12:43:57;;;;;;;15.15;11.93;;;9.60;99.90;;;;;;5051961;28;20055;-53